Time;durP1;ratioP1;P1;durP2;ratioP2;P2;SDS_P1;SDS_P2;PMS_P1;PMS_P2;Temp;Humidity;BMP_temperature;BMP_pressure;BME280_temperature;BME280_humidity;BME280_pressure;Samples;Min_cycle;Max_cycle;Signal;HPM_P1;HPM_P2
2022/10/01 00:01:06;;;;;;;10.77;9.68;;;;;;;;;;4971491;28;20055;-81
2022/10/01 00:03:33;;;;;;;12.13;10.50;;;;;;;;;;4956075;28;20089;-82
2022/10/01 00:06:10;;;;;;;12.07;10.55;;;;;;;;;;4955362;28;20508;-82
2022/10/01 00:08:36;;;;;;;15.13;11.50;;;;;;;;;;4955970;28;20152;-82
2022/10/01 00:11:10;;;;;;;12.45;10.75;;;;;;;;;;4955816;28;20043;-81
2022/10/01 00:13:37;;;;;;;15.00;11.95;;;;;;;;;;4954800;29;20074;-81
2022/10/01 00:16:10;;;;;;;15.05;11.35;;;;;;;;;;4960835;28;20085;-82
2022/10/01 00:18:37;;;;;;;12.38;11.00;;;;;;;;;;4973664;28;20077;-81
2022/10/01 00:21:07;;;;;;;14.00;11.50;;;;;;;;;;4975473;28;20050;-82
2022/10/01 00:23:33;;;;;;;14.10;11.27;;;;;;;;;;4959216;28;20043;-82
2022/10/01 00:26:10;;;;;;;12.35;10.80;;;;;;;;;;4955815;28;20384;-82
2022/10/01 00:28:36;;;;;;;14.25;12.23;;;;;;;;;;4956148;28;20040;-82
2022/10/01 00:31:02;;;;;;;15.73;12.02;;;;;;;;;;4962918;28;20125;-82
2022/10/01 00:33:28;;;;;;;15.73;12.25;;;;;;;;;;4973963;28;20046;-82
2022/10/01 00:35:55;;;;;;;16.02;12.85;;;;;;;;;;4974642;28;20057;-82
2022/10/01 00:38:21;;;;;;;15.02;12.32;;;;;;;;;;4974200;28;20062;-81
2022/10/01 00:40:47;;;;;;;15.02;12.45;;;;;;;;;;4974426;28;20092;-81
2022/10/01 00:43:23;;;;;;;13.00;11.60;;;;;;;;;;4974555;28;20129;-81
2022/10/01 00:45:49;;;;;;;;;;;;;;;;;;4967653;28;20047;-81
2022/10/01 00:48:16;;;;;;;14.07;11.40;;;;;;;;;;4955669;28;19930;-82
2022/10/01 00:50:42;;;;;;;15.18;11.43;;;;;;;;;;4953960;28;20467;-81
2022/10/01 00:53:13;;;;;;;15.07;11.70;;;;;;;;;;4959443;28;20485;-81
2022/10/01 00:55:43;;;;;;;14.52;12.15;;;;;;;;;;4974429;28;20051;-81
2022/10/01 00:58:11;;;;;;;15.10;13.00;;;;;;;;;;4974044;28;20050;-82
2022/10/01 01:00:39;;;;;;;13.45;12.05;;;;;;;;;;4965485;28;20046;-82
2022/10/01 01:03:05;;;;;;;13.40;11.10;;;;;;;;;;4953447;29;20169;-81
2022/10/01 01:05:31;;;;;;;12.30;10.77;;;;;;;;;;4954478;28;20043;-81
2022/10/01 01:08:00;;;;;;;19.20;11.63;;;;;;;;;;4953101;28;20058;-81
2022/10/01 01:10:34;;;;;;;16.38;11.90;;;;;;;;;;4954835;28;20047;-82
2022/10/01 01:13:03;;;;;;;12.70;10.48;;;;;;;;;;4956858;28;20055;-82
2022/10/01 01:15:34;;;;;;;13.88;11.63;;;;;;;;;;4959232;28;20043;-82
2022/10/01 01:18:18;;;;;;;21.35;11.65;;;;;;;;;;4954458;28;20098;-81
2022/10/01 01:21:10;;;;;;;12.73;10.00;;;;;;;;;;4954248;28;20125;-80
2022/10/01 01:23:36;;;;;;;15.60;10.63;;;;;;;;;;4954980;28;20126;-82
2022/10/01 01:26:17;;;;;;;14.20;11.20;;;;;;;;;;4954109;28;20051;-81
2022/10/01 01:28:45;;;;;;;12.45;9.88;;;;;;;;;;4954465;28;20043;-82
2022/10/01 01:31:14;;;;;;;12.13;10.15;;;;;;;;;;4955007;29;20417;-82
2022/10/01 01:33:42;;;;;;;11.55;9.40;;;;;;;;;;4954255;28;20075;-82
2022/10/01 01:36:14;;;;;;;14.52;10.00;;;;;;;;;;4954941;29;20494;-83
2022/10/01 01:38:44;;;;;;;11.02;9.38;;;;;;;;;;4954954;28;20122;-83
2022/10/01 01:41:13;;;;;;;11.43;9.95;;;;;;;;;;4954026;28;20050;-82
2022/10/01 01:43:41;;;;;;;12.40;9.63;;;;;;;;;;4955123;28;20501;-82
2022/10/01 01:46:09;;;;;;;12.32;9.15;;;;;;;;;;4974496;28;20049;-82
2022/10/01 01:48:35;;;;;;;11.90;9.32;;;;;;;;;;4973101;28;20402;-82
2022/10/01 01:51:13;;;;;;;14.40;9.73;;;;;;;;;;4973460;28;20057;-82
2022/10/01 01:53:40;;;;;;;9.88;7.45;;;;;;;;;;4969212;28;20049;-81
2022/10/01 01:56:06;;;;;;;9.57;8.50;;;;;;;;;;4954276;28;20148;-82
2022/10/01 01:58:34;;;;;;;8.85;7.72;;;;;;;;;;4953716;28;20096;-81
2022/10/01 02:01:01;;;;;;;8.70;7.07;;;;;;;;;;4953576;28;20048;-81
2022/10/01 02:03:28;;;;;;;9.15;7.68;;;;;;;;;;4969549;28;20133;-81
2022/10/01 02:06:08;;;;;;;8.77;7.05;;;;;;;;;;4971704;28;20404;-82
2022/10/01 02:08:53;;;;;;;7.72;6.50;;;;;;;;;;4967614;28;20062;-81
2022/10/01 02:11:23;;;;;;;8.55;6.45;;;;;;;;;;4953390;29;20105;-81
2022/10/01 02:13:58;;;;;;;8.25;6.78;;;;;;;;;;4953405;28;20059;-81
2022/10/01 02:16:29;;;;;;;8.25;6.90;;;;;;;;;;4954222;28;20448;-81
2022/10/01 02:19:14;;;;;;;8.38;6.95;;;;;;;;;;4972995;28;20069;-81
2022/10/01 02:21:41;;;;;;;8.77;7.38;;;;;;;;;;4972341;28;20374;-80
2022/10/01 02:24:18;;;;;;;7.75;6.72;;;;;;;;;;4971689;28;20046;-80
2022/10/01 02:26:45;;;;;;;9.10;7.25;;;;;;;;;;4972582;28;20161;-79
2022/10/01 02:29:13;;;;;;;8.32;6.97;;;;;;;;;;4973040;28;20078;-78
2022/10/01 02:31:40;;;;;;;8.43;6.85;;;;;;;;;;4965428;28;20051;-78
2022/10/01 02:34:07;;;;;;;8.27;6.88;;;;;;;;;;4957012;28;20470;-78
2022/10/01 02:36:35;;;;;;;7.68;6.82;;;;;;;;;;4951668;28;20112;-78
2022/10/01 02:39:02;;;;;;;8.55;6.90;;;;;;;;;;4953312;29;20100;-78
2022/10/01 02:41:31;;;;;;;7.82;6.63;;;;;;;;;;4953158;29;20101;-78
2022/10/01 02:44:21;;;;;;;8.60;7.30;;;;;;;;;;4951562;29;20499;-78
2022/10/01 02:46:59;;;;;;;9.55;7.25;;;;;;;;;;4963926;28;20497;-78
2022/10/01 02:49:26;;;;;;;7.10;6.40;;;;;;;;;;4960659;28;20047;-78
2022/10/01 02:51:56;;;;;;;8.82;7.20;;;;;;;;;;4960452;28;20043;-77
2022/10/01 02:54:39;;;;;;;7.30;6.50;;;;;;;;;;4971595;28;20035;-78
2022/10/01 02:57:26;;;;;;;9.55;6.82;;;;;;;;;;4972466;28;20045;-77
2022/10/01 02:59:59;;;;;;;8.32;7.03;;;;;;;;;;4972597;28;20054;-77
2022/10/01 03:02:26;;;;;;;7.10;6.30;;;;;;;;;;4958573;28;20044;-77
2022/10/01 03:04:53;;;;;;;7.10;6.40;;;;;;;;;;4953012;28;20054;-77
2022/10/01 03:07:19;;;;;;;6.85;6.15;;;;;;;;;;4967174;28;20047;-77
2022/10/01 03:09:46;;;;;;;7.07;5.65;;;;;;;;;;4972234;28;20046;-77
2022/10/01 03:12:12;;;;;;;8.00;6.10;;;;;;;;;;4972197;28;20053;-77
2022/10/01 03:14:38;;;;;;;6.72;6.00;;;;;;;;;;4966415;28;20046;-77
2022/10/01 03:17:05;;;;;;;7.07;6.38;;;;;;;;;;4961574;28;20394;-77
2022/10/01 03:19:31;;;;;;;6.93;5.97;;;;;;;;;;4967610;28;20054;-77
2022/10/01 03:21:57;;;;;;;7.10;5.82;;;;;;;;;;4957710;28;20048;-77
2022/10/01 03:24:23;;;;;;;6.80;5.63;;;;;;;;;;4952721;28;20047;-77
2022/10/01 03:26:49;;;;;;;5.60;5.05;;;;;;;;;;4952193;29;20516;-77
2022/10/01 03:29:15;;;;;;;5.35;4.85;;;;;;;;;;4969738;28;20053;-77
2022/10/01 03:31:42;;;;;;;5.47;4.65;;;;;;;;;;5029982;28;20053;-77
2022/10/01 03:34:08;;;;;;;4.95;4.45;;;;;;;;;;4956548;28;20051;-77
2022/10/01 03:36:34;;;;;;;4.93;4.28;;;;;;;;;;4955550;28;20045;-77
2022/10/01 03:39:00;;;;;;;5.38;4.45;;;;;;;;;;4955561;28;20463;-77
2022/10/01 03:41:26;;;;;;;5.07;4.55;;;;;;;;;;4955901;28;20134;-77
2022/10/01 03:43:52;;;;;;;5.05;4.55;;;;;;;;;;4955737;28;20043;-77
2022/10/01 03:46:18;;;;;;;4.85;4.35;;;;;;;;;;4955781;28;20047;-77
2022/10/01 03:48:44;;;;;;;5.15;4.65;;;;;;;;;;4965800;28;20039;-78
2022/10/01 03:51:11;;;;;;;5.28;4.78;;;;;;;;;;4965296;28;20057;-78
2022/10/01 03:53:37;;;;;;;4.57;4.13;;;;;;;;;;4975171;28;20051;-77
2022/10/01 03:56:04;;;;;;;4.60;4.05;;;;;;;;;;4975320;28;20051;-78
2022/10/01 03:58:30;;;;;;;4.65;4.20;;;;;;;;;;4974872;28;20043;-77
2022/10/01 04:00:56;;;;;;;5.10;4.60;;;;;;;;;;4969155;28;20046;-77
2022/10/01 04:03:23;;;;;;;5.43;4.60;;;;;;;;;;4960519;28;20588;-78
2022/10/01 04:05:49;;;;;;;5.22;4.57;;;;;;;;;;4965488;28;20051;-77
2022/10/01 04:08:15;;;;;;;5.18;4.68;;;;;;;;;;4974451;28;20482;-77
2022/10/01 04:10:41;;;;;;;5.50;4.97;;;;;;;;;;4974308;28;20050;-77
2022/10/01 04:13:08;;;;;;;5.63;4.55;;;;;;;;;;4974371;28;20119;-77
2022/10/01 04:15:34;;;;;;;6.78;5.35;;;;;;;;;;4968589;28;20038;-77
2022/10/01 04:18:04;;;;;;;5.78;5.18;;;;;;;;;;4972992;28;20059;-77
2022/10/01 04:20:30;;;;;;;6.05;5.45;;;;;;;;;;4954538;28;20497;-78
2022/10/01 04:22:56;;;;;;;6.10;5.50;;;;;;;;;;4954902;28;20075;-77
2022/10/01 04:25:22;;;;;;;6.50;5.65;;;;;;;;;;4955012;28;20074;-77
2022/10/01 04:28:01;;;;;;;5.78;5.28;;;;;;;;;;4969559;28;20538;-77
2022/10/01 04:30:29;;;;;;;6.30;5.22;;;;;;;;;;4973573;28;20039;-77
2022/10/01 04:32:55;;;;;;;6.63;5.95;;;;;;;;;;4974366;28;20065;-77
2022/10/01 04:35:21;;;;;;;6.15;5.53;;;;;;;;;;4972685;28;20097;-77
2022/10/01 04:37:48;;;;;;;6.38;5.78;;;;;;;;;;4964966;28;20101;-77
2022/10/01 04:40:15;;;;;;;6.78;6.05;;;;;;;;;;4954704;28;20047;-77
2022/10/01 04:42:42;;;;;;;7.53;6.05;;;;;;;;;;4955055;28;20039;-77
2022/10/01 04:45:10;;;;;;;7.10;6.40;;;;;;;;;;4959337;28;20050;-77
2022/10/01 04:47:36;;;;;;;8.80;6.88;;;;;;;;;;4973080;28;20050;-78
2022/10/01 04:50:02;;;;;;;11.20;6.68;;;;;;;;;;4956555;28;20043;-77
2022/10/01 04:52:28;;;;;;;6.75;6.07;;;;;;;;;;4953652;28;20394;-78
2022/10/01 04:54:54;;;;;;;6.97;6.20;;;;;;;;;;4953431;28;20478;-78
2022/10/01 04:57:20;;;;;;;9.68;6.78;;;;;;;;;;4953212;28;20505;-78
2022/10/01 04:59:47;;;;;;;8.75;6.60;;;;;;;;;;4953592;28;20131;-78
2022/10/01 05:02:13;;;;;;;8.43;6.35;;;;;;;;;;4954360;28;20397;-78
2022/10/01 05:04:39;;;;;;;7.68;6.88;;;;;;;;;;4962834;28;20043;-77
2022/10/01 05:07:06;;;;;;;10.63;6.53;;;;;;;;;;4954781;28;20047;-77
2022/10/01 05:09:32;;;;;;;7.80;6.75;;;;;;;;;;4973393;28;20058;-77
2022/10/01 05:11:58;;;;;;;13.10;7.28;;;;;;;;;;4974012;28;20050;-77
2022/10/01 05:14:24;;;;;;;9.57;7.07;;;;;;;;;;4956298;28;20047;-78
2022/10/01 05:16:51;;;;;;;11.30;7.20;;;;;;;;;;4954473;28;20054;-77
2022/10/01 05:19:17;;;;;;;8.82;7.13;;;;;;;;;;4957574;28;20063;-77
2022/10/01 05:21:43;;;;;;;12.45;8.27;;;;;;;;;;4954376;28;20050;-77
2022/10/01 05:24:09;;;;;;;12.93;7.50;;;;;;;;;;4953775;28;20421;-77
2022/10/01 05:26:37;;;;;;;13.57;7.65;;;;;;;;;;4953057;28;20081;-78
2022/10/01 05:29:03;;;;;;;10.88;7.45;;;;;;;;;;4952389;28;20058;-77
2022/10/01 05:31:30;;;;;;;12.60;7.75;;;;;;;;;;4958847;28;20045;-77
2022/10/01 05:33:56;;;;;;;15.52;8.00;;;;;;;;;;4965138;28;20047;-81
2022/10/01 05:36:24;;;;;;;13.27;7.40;;;;;;;;;;4954254;28;20049;-81
2022/10/01 05:38:51;;;;;;;13.85;7.22;;;;;;;;;;4954069;28;20058;-80
2022/10/01 05:41:17;;;;;;;12.25;7.25;;;;;;;;;;4953902;28;20047;-80
2022/10/01 05:43:43;;;;;;;14.85;8.00;;;;;;;;;;4956008;28;20039;-79
2022/10/01 05:46:09;;;;;;;15.07;7.53;;;;;;;;;;4973301;28;20050;-78
2022/10/01 05:48:36;;;;;;;13.27;6.88;;;;;;;;;;4966715;28;20520;-78
2022/10/01 05:51:06;;;;;;;11.30;7.03;;;;;;;;;;4953255;28;20510;-78
2022/10/01 05:53:35;;;;;;;12.63;6.90;;;;;;;;;;4953671;28;20053;-78
2022/10/01 05:56:02;;;;;;;10.93;6.47;;;;;;;;;;4953674;28;20089;-78
2022/10/01 05:58:28;;;;;;;17.42;6.35;;;;;;;;;;4962603;28;20046;-78
2022/10/01 06:00:54;;;;;;;19.02;6.65;;;;;;;;;;4971456;28;20047;-78
2022/10/01 06:03:21;;;;;;;13.85;6.30;;;;;;;;;;4955430;28;20085;-78
2022/10/01 06:05:47;;;;;;;11.50;5.50;;;;;;;;;;4972892;28;20043;-79
2022/10/01 06:08:13;;;;;;;14.82;5.85;;;;;;;;;;4971405;28;20047;-78
2022/10/01 06:10:40;;;;;;;13.20;4.97;;;;;;;;;;4952484;28;20055;-79
2022/10/01 06:13:06;;;;;;;16.13;5.78;;;;;;;;;;4953520;28;20047;-78
2022/10/01 06:15:38;;;;;;;13.93;6.43;;;;;;;;;;4953736;28;20047;-78
2022/10/01 06:18:05;;;;;;;13.43;6.10;;;;;;;;;;4955397;28;20124;-78
2022/10/01 06:20:31;;;;;;;13.38;6.03;;;;;;;;;;4971881;28;20050;-78
2022/10/01 06:22:57;;;;;;;21.55;5.93;;;;;;;;;;4953646;28;20046;-78
2022/10/01 06:25:24;;;;;;;16.88;5.85;;;;;;;;;;4953404;28;20604;-80
2022/10/01 06:27:52;;;;;;;13.68;5.40;;;;;;;;;;4954428;28;20394;-78
2022/10/01 06:30:18;;;;;;;16.33;5.05;;;;;;;;;;5028062;28;20037;-77
2022/10/01 06:32:44;;;;;;;11.88;5.18;;;;;;;;;;4969516;28;20061;-78
2022/10/01 06:35:10;;;;;;;15.57;4.97;;;;;;;;;;4971792;28;20043;-78
2022/10/01 06:37:39;;;;;;;13.20;4.82;;;;;;;;;;4972776;28;20101;-78
2022/10/01 06:40:06;;;;;;;17.58;5.65;;;;;;;;;;4972009;28;20122;-78
2022/10/01 06:42:32;;;;;;;12.48;4.88;;;;;;;;;;4963677;28;20098;-78
2022/10/01 06:44:58;;;;;;;20.73;6.55;;;;;;;;;;4951867;29;20051;-78
2022/10/01 06:47:24;;;;;;;16.95;5.47;;;;;;;;;;4956299;28;20042;-78
2022/10/01 06:49:50;;;;;;;11.52;4.78;;;;;;;;;;4970238;28;20126;-78
2022/10/01 06:55:00;;;;;;;19.15;5.10;;;;;;;;;;4951944;29;20051;-78
2022/10/01 06:57:27;;;;;;;14.30;4.25;;;;;;;;;;4957374;28;20074;-78
2022/10/01 06:59:53;;;;;;;11.02;5.22;;;;;;;;;;4970820;28;20042;-78
2022/10/01 07:02:26;;;;;;;12.20;4.63;;;;;;;;;;4960268;28;20043;-78
2022/10/01 07:04:52;;;;;;;12.55;4.50;;;;;;;;;;4952639;28;20445;-78
2022/10/01 07:07:18;;;;;;;19.40;4.97;;;;;;;;;;4952529;29;20050;-78
2022/10/01 07:09:45;;;;;;;12.25;4.40;;;;;;;;;;4952814;29;20047;-78
2022/10/01 07:12:11;;;;;;;10.23;4.20;;;;;;;;;;4959455;28;20402;-79
2022/10/01 07:14:37;;;;;;;14.15;4.60;;;;;;;;;;4967385;28;20083;-79
2022/10/01 07:17:03;;;;;;;16.55;3.95;;;;;;;;;;4958835;28;20046;-77
2022/10/01 07:19:30;;;;;;;11.68;3.70;;;;;;;;;;4969307;28;20066;-79
2022/10/01 07:21:56;;;;;;;12.45;4.07;;;;;;;;;;4971553;28;20047;-78
2022/10/01 07:24:22;;;;;;;10.95;3.58;;;;;;;;;;4954916;28;20043;-78
2022/10/01 07:26:49;;;;;;;19.13;4.00;;;;;;;;;;4957432;28;20043;-81
2022/10/01 07:29:16;;;;;;;15.07;3.83;;;;;;;;;;5033696;28;20051;-79
2022/10/01 07:31:42;;;;;;;14.80;3.72;;;;;;;;;;4955651;28;20047;-78
2022/10/01 07:34:08;;;;;;;16.20;3.63;;;;;;;;;;4964444;28;20039;-78
2022/10/01 07:36:34;;;;;;;9.82;3.47;;;;;;;;;;4957795;28;20039;-78
2022/10/01 07:39:00;;;;;;;11.88;3.53;;;;;;;;;;4963764;28;20042;-78
2022/10/01 07:41:27;;;;;;;14.32;3.45;;;;;;;;;;4991252;28;20046;-78
2022/10/01 07:43:53;;;;;;;15.60;3.60;;;;;;;;;;4991185;28;20042;-80
2022/10/01 07:46:19;;;;;;;13.90;3.13;;;;;;;;;;4972252;28;20046;-78
2022/10/01 07:48:47;;;;;;;7.20;2.85;;;;;;;;;;4971707;28;20055;-78
2022/10/01 07:51:13;;;;;;;21.52;3.65;;;;;;;;;;4966578;28;20516;-78
2022/10/01 07:53:39;;;;;;;14.43;3.30;;;;;;;;;;4958871;28;20394;-79
2022/10/01 07:56:05;;;;;;;12.27;3.80;;;;;;;;;;4954603;28;20074;-79
2022/10/01 07:58:31;;;;;;;11.30;3.95;;;;;;;;;;4955212;28;20048;-78
2022/10/01 08:00:59;;;;;;;18.70;3.85;;;;;;;;;;4963480;28;20164;-78
2022/10/01 08:03:25;;;;;;;14.98;3.72;;;;;;;;;;4967942;28;20061;-78
2022/10/01 08:05:54;;;;;;;10.40;3.72;;;;;;;;;;4965915;28;20062;-77
2022/10/01 08:08:20;;;;;;;13.18;3.33;;;;;;;;;;4970350;28;20057;-78
2022/10/01 08:10:47;;;;;;;15.82;3.65;;;;;;;;;;4955571;28;20049;-78
2022/10/01 08:13:15;;;;;;;9.27;3.22;;;;;;;;;;4957171;28;20469;-78
2022/10/01 08:15:45;;;;;;;10.63;3.20;;;;;;;;;;4973147;28;20043;-78
2022/10/01 08:18:12;;;;;;;11.73;3.70;;;;;;;;;;4960821;28;20498;-79
2022/10/01 08:20:38;;;;;;;11.50;3.20;;;;;;;;;;4965679;28;20050;-78
2022/10/01 08:23:09;;;;;;;11.38;3.35;;;;;;;;;;4973999;28;20116;-78
2022/10/01 08:25:35;;;;;;;13.00;3.55;;;;;;;;;;4972269;28;20122;-78
2022/10/01 08:28:01;;;;;;;10.95;3.28;;;;;;;;;;5027320;28;20041;-79
2022/10/01 08:30:28;;;;;;;14.23;3.50;;;;;;;;;;5077393;28;20040;-81
2022/10/01 08:32:55;;;;;;;12.55;3.20;;;;;;;;;;5014867;28;20051;-81
2022/10/01 08:35:21;;;;;;;9.05;3.60;;;;;;;;;;4955109;28;20062;-81
2022/10/01 08:37:47;;;;;;;12.32;3.00;;;;;;;;;;4954551;28;20398;-81
2022/10/01 08:40:13;;;;;;;16.50;4.20;;;;;;;;;;4965118;28;20122;-81
2022/10/01 08:42:39;;;;;;;11.50;4.25;;;;;;;;;;4973553;28;20057;-79
2022/10/01 08:45:09;;;;;;;10.65;3.90;;;;;;;;;;4962085;28;20039;-78
2022/10/01 08:47:38;;;;;;;8.20;3.03;;;;;;;;;;4964654;28;20050;-79
2022/10/01 08:50:24;;;;;;;11.02;2.92;;;;;;;;;;4956355;28;20122;-78
2022/10/01 08:52:53;;;;;;;5.93;2.95;;;;;;;;;;4970587;28;20397;-79
2022/10/01 08:55:24;;;;;;;8.02;2.60;;;;;;;;;;4974471;28;20053;-79
2022/10/01 08:57:56;;;;;;;7.10;2.40;;;;;;;;;;5038056;28;20114;-79
2022/10/01 09:00:26;;;;;;;4.95;2.35;;;;;;;;;;4972074;28;20768;-79
2022/10/01 09:02:52;;;;;;;6.10;2.10;;;;;;;;;;4954025;28;20466;-80
2022/10/01 09:05:29;;;;;;;5.43;2.58;;;;;;;;;;4954365;29;20043;-79
2022/10/01 09:08:01;;;;;;;6.40;2.70;;;;;;;;;;4954822;29;20479;-80
2022/10/01 09:10:42;;;;;;;4.15;2.10;;;;;;;;;;4953978;29;20387;-80
2022/10/01 09:13:12;;;;;;;5.68;2.45;;;;;;;;;;4954331;28;20486;-80
2022/10/01 09:15:46;;;;;;;5.07;2.50;;;;;;;;;;4957640;28;20097;-80
2022/10/01 09:18:25;;;;;;;8.98;2.58;;;;;;;;;;4954212;28;20105;-82
2022/10/01 09:20:53;;;;;;;5.90;2.10;;;;;;;;;;4953839;29;20122;-81
2022/10/01 09:23:24;;;;;;;7.35;2.45;;;;;;;;;;4955152;28;20396;-81
2022/10/01 09:25:50;;;;;;;10.02;2.45;;;;;;;;;;4954108;29;20117;-82
2022/10/01 09:28:24;;;;;;;7.13;2.08;;;;;;;;;;4953560;28;20104;-83
2022/10/01 09:30:57;;;;;;;5.22;1.75;;;;;;;;;;4963151;28;20431;-82
2022/10/01 09:33:29;;;;;;;4.28;1.70;;;;;;;;;;4957956;28;20081;-80
2022/10/01 09:36:00;;;;;;;4.18;1.42;;;;;;;;;;4973931;28;20547;-81
2022/10/01 09:38:36;;;;;;;3.47;1.73;;;;;;;;;;4973566;28;20339;-81
2022/10/01 09:41:05;;;;;;;2.67;1.50;;;;;;;;;;4963846;28;20514;-81
2022/10/01 09:43:34;;;;;;;6.55;1.90;;;;;;;;;;4953469;28;20521;-81
2022/10/01 09:46:02;;;;;;;5.70;1.63;;;;;;;;;;4953792;28;20051;-83
2022/10/01 09:48:37;;;;;;;4.85;1.88;;;;;;;;;;4953962;28;20047;-81
2022/10/01 09:51:09;;;;;;;4.93;1.83;;;;;;;;;;4953599;28;20047;-82
2022/10/01 09:53:42;;;;;;;4.95;1.98;;;;;;;;;;4963164;28;20039;-81
2022/10/01 09:56:11;;;;;;;6.97;2.17;;;;;;;;;;4961916;28;20047;-83
2022/10/01 09:58:39;;;;;;;5.85;2.20;;;;;;;;;;4972888;28;20122;-82
2022/10/01 10:01:11;;;;;;;8.55;2.38;;;;;;;;;;4972658;28;20107;-83
2022/10/01 10:03:37;;;;;;;2.53;1.63;;;;;;;;;;4973992;28;20046;-83
2022/10/01 10:06:05;;;;;;;4.88;1.90;;;;;;;;;;4973016;28;20042;-81
2022/10/01 10:08:41;;;;;;;4.35;1.77;;;;;;;;;;4963163;28;20047;-84
2022/10/01 10:11:09;;;;;;;4.40;1.80;;;;;;;;;;4954407;28;20051;-85
2022/10/01 10:14:03;;;;;;;6.25;2.00;;;;;;;;;;4974044;28;20058;-85
2022/10/01 10:16:36;;;;;;;4.03;1.80;;;;;;;;;;4974855;28;20065;-84
2022/10/01 10:19:04;;;;;;;6.10;2.10;;;;;;;;;;4971874;28;20058;-85
2022/10/01 10:21:33;;;;;;;6.97;2.42;;;;;;;;;;4972470;28;20494;-84
2022/10/01 10:24:00;;;;;;;7.15;2.15;;;;;;;;;;4973043;28;20054;-84
2022/10/01 10:26:30;;;;;;;7.82;2.33;;;;;;;;;;4968169;28;20049;-81
2022/10/01 10:28:58;;;;;;;8.85;3.25;;;;;;;;;;4976408;28;20051;-81
2022/10/01 10:31:26;;;;;;;10.02;3.05;;;;;;;;;;4983925;28;20062;-80
2022/10/01 10:33:56;;;;;;;8.50;2.72;;;;;;;;;;4985900;28;20054;-81
2022/10/01 10:36:26;;;;;;;9.93;3.17;;;;;;;;;;4979552;28;20096;-80
2022/10/01 10:38:53;;;;;;;8.77;3.50;;;;;;;;;;4983132;28;20055;-81
2022/10/01 10:41:25;;;;;;;9.15;3.25;;;;;;;;;;4961693;28;20050;-78
2022/10/01 10:43:52;;;;;;;8.65;2.90;;;;;;;;;;4953458;28;20146;-81
2022/10/01 10:46:32;;;;;;;6.68;3.15;;;;;;;;;;4953648;29;20109;-81
2022/10/01 10:49:02;;;;;;;10.82;3.17;;;;;;;;;;4953087;28;20440;-81
2022/10/01 10:51:29;;;;;;;10.63;3.45;;;;;;;;;;4952952;28;20081;-81
2022/10/01 10:53:55;;;;;;;10.70;3.10;;;;;;;;;;4952682;28;20065;-81
2022/10/01 10:56:23;;;;;;;9.13;2.70;;;;;;;;;;4953208;28;20058;-81
2022/10/01 10:58:51;;;;;;;10.68;3.28;;;;;;;;;;4952766;28;20126;-81
2022/10/01 11:01:26;;;;;;;13.07;3.28;;;;;;;;;;4952781;28;20058;-81
2022/10/01 11:03:54;;;;;;;15.03;3.40;;;;;;;;;;4952784;28;20490;-82
2022/10/01 11:06:21;;;;;;;13.23;3.25;;;;;;;;;;4951156;28;20445;-82
2022/10/01 11:08:56;;;;;;;13.40;3.25;;;;;;;;;;4952618;28;20122;-82
2022/10/01 11:11:40;;;;;;;16.63;3.65;;;;;;;;;;4952337;29;20573;-82
2022/10/01 11:14:15;;;;;;;11.00;3.28;;;;;;;;;;4952544;28;20039;-82
2022/10/01 11:16:47;;;;;;;10.50;3.05;;;;;;;;;;4952545;28;20130;-82
2022/10/01 11:19:32;;;;;;;8.38;2.85;;;;;;;;;;4952017;28;20051;-83
2022/10/01 11:21:58;;;;;;;8.93;2.72;;;;;;;;;;4955334;28;20219;-83
2022/10/01 11:24:28;;;;;;;14.45;3.50;;;;;;;;;;4952399;28;20127;-83
2022/10/01 11:27:00;;;;;;;11.73;3.95;;;;;;;;;;4952655;28;20110;-83
2022/10/01 11:29:38;;;;;;;10.02;2.88;;;;;;;;;;4952098;28;20571;-82
2022/10/01 11:32:07;;;;;;;9.27;2.60;;;;;;;;;;4952253;28;20494;-83
2022/10/01 11:34:36;;;;;;;12.02;2.97;;;;;;;;;;4952468;28;20449;-83
2022/10/01 11:37:02;;;;;;;15.73;3.67;;;;;;;;;;4952272;28;20050;-83
2022/10/01 11:39:29;;;;;;;13.52;3.03;;;;;;;;;;4952440;28;20035;-83
2022/10/01 11:42:02;;;;;;;9.52;2.85;;;;;;;;;;4952000;28;20494;-83
2022/10/01 11:44:28;;;;;;;12.30;3.38;;;;;;;;;;4952224;28;20074;-83
2022/10/01 11:47:00;;;;;;;11.32;3.33;;;;;;;;;;4976350;28;20092;-83
2022/10/01 11:49:53;;;;;;;8.55;2.25;;;;;;;;;;4991063;28;20125;-83
2022/10/01 11:52:19;;;;;;;12.85;2.67;;;;;;;;;;4986036;28;20055;-83
2022/10/01 11:54:51;;;;;;;10.77;2.33;;;;;;;;;;4973520;28;20101;-83
2022/10/01 12:00:09;;;;;;;7.45;2.67;;;;;;;;;;4974667;28;20125;-83
2022/10/01 12:02:41;;;;;;;9.68;2.47;;;;;;;;;;4958381;28;20078;-83
2022/10/01 12:05:09;;;;;;;9.93;2.60;;;;;;;;;;4974573;28;20039;-83
2022/10/01 12:07:42;;;;;;;10.52;2.70;;;;;;;;;;4975152;28;20473;-84
2022/10/01 12:10:16;;;;;;;8.13;2.10;;;;;;;;;;4974226;28;20519;-84
2022/10/01 12:12:48;;;;;;;8.18;2.55;;;;;;;;;;4974091;28;20054;-84
2022/10/01 12:15:19;;;;;;;8.20;2.22;;;;;;;;;;4974428;28;20043;-83
2022/10/01 12:18:09;;;;;;;7.57;2.42;;;;;;;;;;4974576;28;20070;-83
2022/10/01 12:20:44;;;;;;;5.22;2.00;;;;;;;;;;4958935;28;20441;-83
2022/10/01 12:23:18;;;;;;;5.53;1.98;;;;;;;;;;4954348;28;20055;-83
2022/10/01 12:26:03;;;;;;;5.47;2.00;;;;;;;;;;4955056;28;20051;-83
2022/10/01 12:28:51;;;;;;;4.72;1.92;;;;;;;;;;4954853;28;20047;-83
2022/10/01 12:31:43;;;;;;;7.05;2.47;;;;;;;;;;4955243;28;20490;-83
2022/10/01 12:34:15;;;;;;;7.32;2.22;;;;;;;;;;4963636;28;20375;-83
2022/10/01 12:36:45;;;;;;;9.00;2.28;;;;;;;;;;4974044;28;20058;-83
2022/10/01 12:39:28;;;;;;;10.10;2.30;;;;;;;;;;4974000;28;20409;-84
2022/10/01 12:42:00;;;;;;;8.07;2.63;;;;;;;;;;4974053;28;20397;-83
2022/10/01 12:44:36;;;;;;;11.43;2.97;;;;;;;;;;4973662;28;20371;-83
2022/10/01 12:47:08;;;;;;;10.77;2.90;;;;;;;;;;4974007;28;20057;-83
2022/10/01 12:49:49;;;;;;;10.85;2.65;;;;;;;;;;4974030;28;20062;-89
2022/10/01 12:52:34;;;;;;;13.55;3.65;;;;;;;;;;4974379;28;20100;-88
2022/10/01 12:55:01;;;;;;;6.93;1.95;;;;;;;;;;5041657;28;20501;-88
2022/10/01 12:57:27;;;;;;;9.32;2.40;;;;;;;;;;4974755;28;20082;-84
2022/10/01 13:00:09;;;;;;;11.95;3.13;;;;;;;;;;4971925;28;20051;-87
2022/10/01 13:02:44;;;;;;;9.68;2.33;;;;;;;;;;4967902;28;20074;-88
2022/10/01 13:05:28;;;;;;;8.68;2.60;;;;;;;;;;4975071;28;20267;-89
2022/10/01 13:08:00;;;;;;;9.07;2.53;;;;;;;;;;4974281;28;20406;-85
2022/10/01 13:10:33;;;;;;;10.73;2.78;;;;;;;;;;4960084;28;20050;-84
2022/10/01 13:13:00;;;;;;;10.32;2.88;;;;;;;;;;4957836;28;20051;-83
2022/10/01 13:15:36;;;;;;;9.90;2.65;;;;;;;;;;4954560;28;20062;-84
2022/10/01 13:18:13;;;;;;;6.28;2.35;;;;;;;;;;4954054;28;20059;-84
2022/10/01 13:20:42;;;;;;;6.05;1.98;;;;;;;;;;4954183;29;20039;-83
2022/10/01 13:23:17;;;;;;;6.28;2.40;;;;;;;;;;4953809;28;20048;-82
2022/10/01 13:26:02;;;;;;;16.55;2.63;;;;;;;;;;4954193;29;20055;-83
2022/10/01 13:28:34;;;;;;;9.55;2.10;;;;;;;;;;4954097;28;20074;-83
2022/10/01 13:31:01;;;;;;;6.38;2.03;;;;;;;;;;4956728;28;20370;-82
2022/10/01 13:33:31;;;;;;;6.43;2.33;;;;;;;;;;4973385;28;20043;-82
2022/10/01 13:35:59;;;;;;;9.15;2.28;;;;;;;;;;4960397;28;20571;-82
2022/10/01 13:38:30;;;;;;;9.88;2.35;;;;;;;;;;4957780;28;20043;-82
2022/10/01 13:41:01;;;;;;;10.95;2.20;;;;;;;;;;4955301;28;21198;-83
2022/10/01 13:43:28;;;;;;;12.32;2.70;;;;;;;;;;4963520;28;20149;-83
2022/10/01 13:45:55;;;;;;;10.43;3.15;;;;;;;;;;4973025;28;20039;-83
2022/10/01 13:48:28;;;;;;;10.25;2.97;;;;;;;;;;4961775;28;20043;-82
2022/10/01 13:51:10;;;;;;;9.90;2.55;;;;;;;;;;4952543;29;20046;-82
2022/10/01 13:53:38;;;;;;;8.55;2.70;;;;;;;;;;4962835;28;20141;-82
2022/10/01 13:56:05;;;;;;;8.38;2.60;;;;;;;;;;4953894;28;20088;-82
2022/10/01 13:58:33;;;;;;;8.02;2.70;;;;;;;;;;4953823;28;20109;-82
2022/10/01 14:01:01;;;;;;;12.30;3.15;;;;;;;;;;4953584;28;20054;-82
2022/10/01 14:03:34;;;;;;;16.08;2.75;;;;;;;;;;4954041;28;20048;-82
2022/10/01 14:06:02;;;;;;;5.53;2.45;;;;;;;;;;4936348;29;20051;-81
2022/10/01 14:08:40;;;;;;;8.48;2.75;;;;;;;;;;4953833;28;20062;-81
2022/10/01 14:16:40;;;;;;;10.98;2.78;;;;;;;;;;4954290;28;20051;-85
2022/10/01 14:19:07;;;;;;;11.90;2.88;;;;;;;;;;4952938;28;20059;-83
2022/10/01 14:21:52;;;;;;;12.48;3.28;;;;;;;;;;4953278;28;20058;-83
2022/10/01 14:24:25;;;;;;;15.02;3.15;;;;;;;;;;4953275;28;20118;-84
2022/10/01 14:26:58;;;;;;;12.43;4.18;;;;;;;;;;4935847;28;20062;-84
2022/10/01 14:29:33;;;;;;;13.68;3.60;;;;;;;;;;4953167;28;20402;-84
2022/10/01 14:32:07;;;;;;;17.60;4.00;;;;;;;;;;4953761;28;20388;-86
2022/10/01 14:34:37;;;;;;;14.98;3.92;;;;;;;;;;4954184;28;20043;-82
2022/10/01 14:37:05;;;;;;;13.13;3.25;;;;;;;;;;4935584;28;20054;-84
2022/10/01 14:39:32;;;;;;;11.20;3.42;;;;;;;;;;4953059;28;20130;-84
2022/10/01 14:41:58;;;;;;;13.07;3.03;;;;;;;;;;4952785;28;20050;-84
2022/10/01 14:44:36;;;;;;;16.48;3.65;;;;;;;;;;4952981;28;20039;-84
2022/10/01 14:47:11;;;;;;;15.57;3.33;;;;;;;;;;4953034;28;20044;-84
2022/10/01 14:49:37;;;;;;;15.35;4.60;;;;;;;;;;4952911;28;20054;-84
2022/10/01 14:52:05;;;;;;;13.63;3.33;;;;;;;;;;4953288;28;20049;-84
2022/10/01 14:54:37;;;;;;;14.20;3.92;;;;;;;;;;4952720;28;20509;-84
2022/10/01 14:57:08;;;;;;;14.13;3.80;;;;;;;;;;4951580;28;20055;-84
2022/10/01 14:59:36;;;;;;;12.20;3.88;;;;;;;;;;4959153;28;20046;-84
2022/10/01 15:02:03;;;;;;;16.10;3.10;;;;;;;;;;4971760;28;20038;-84